Time;durP1;ratioP1;P1;durP2;ratioP2;P2;SDS_P1;SDS_P2;PMS_P1;PMS_P2;Temp;Humidity;BMP_temperature;BMP_pressure;BME280_temperature;BME280_humidity;BME280_pressure;Samples;Min_cycle;Max_cycle;Signal;HPM_P1;HPM_P2
2022/04/05 00:00:00;;;;;;;38.40;9.57;;;;;;;;;;5127816;27;20076;-78
2022/04/05 00:02:25;;;;;;;32.70;8.93;;;;;;;;;;5136016;27;20095;-78
2022/04/05 00:04:51;;;;;;;35.33;8.65;;;;;;;;;;5109641;27;20531;-78
2022/04/05 00:07:16;;;;;;;31.55;7.85;;;;;;;;;;5133272;27;20027;-77
2022/04/05 00:09:41;;;;;;;32.33;8.88;;;;;;;;;;5106612;27;20043;-78
2022/04/05 00:12:07;;;;;;;33.38;7.72;;;;;;;;;;5133296;27;20022;-80
2022/04/05 00:14:33;;;;;;;36.15;7.95;;;;;;;;;;5141492;27;20025;-77
2022/04/05 00:16:58;;;;;;;30.30;7.60;;;;;;;;;;5109498;27;20213;-76
2022/04/05 00:19:25;;;;;;;43.50;8.60;;;;;;;;;;5125870;27;20213;-77
2022/04/05 00:21:51;;;;;;;36.67;7.30;;;;;;;;;;5100758;27;20457;-78
2022/04/05 00:24:16;;;;;;;40.50;10.10;;;;;;;;;;5129674;27;20072;-78
2022/04/05 00:26:41;;;;;;;42.65;9.57;;;;;;;;;;5140131;27;20191;-77
2022/04/05 00:29:07;;;;;;;49.03;9.77;;;;;;;;;;5119406;27;20276;-78
2022/04/05 00:31:32;;;;;;;45.13;10.65;;;;;;;;;;5127052;27;20043;-78
2022/04/05 00:33:57;;;;;;;52.97;10.55;;;;;;;;;;5140334;27;20022;-80
2022/04/05 00:36:22;;;;;;;48.50;11.05;;;;;;;;;;5142364;27;20107;-79
2022/04/05 00:38:48;;;;;;;56.38;11.10;;;;;;;;;;5127832;27;20038;-80
2022/04/05 00:41:13;;;;;;;41.55;10.80;;;;;;;;;;5127157;27;20015;-80
2022/04/05 00:43:39;;;;;;;50.95;10.52;;;;;;;;;;5125531;27;20073;-79
2022/04/05 00:46:05;;;;;;;27.75;8.23;;;;;;;;;;5127109;27;20023;-78
2022/04/05 00:48:47;;;;;;;31.70;8.68;;;;;;;;;;5125272;27;20023;-78
2022/04/05 00:51:14;;;;;;;25.30;8.90;;;;;;;;;;5126190;27;20079;-79
2022/04/05 00:53:41;;;;;;;27.42;7.45;;;;;;;;;;5129551;27;20371;-79
2022/04/05 00:56:07;;;;;;;27.80;8.15;;;;;;;;;;5125750;27;20046;-78
2022/04/05 00:58:32;;;;;;;31.55;7.40;;;;;;;;;;5126691;27;20011;-79
2022/04/05 01:00:58;;;;;;;30.15;9.02;;;;;;;;;;5127074;27;20023;-79
2022/04/05 01:03:25;;;;;;;25.65;7.60;;;;;;;;;;5114649;27;20034;-78
2022/04/05 01:05:51;;;;;;;32.53;7.45;;;;;;;;;;5117786;27;20510;-78
2022/04/05 01:08:18;;;;;;;37.67;8.55;;;;;;;;;;5106883;28;20027;-79
2022/04/05 01:10:44;;;;;;;26.20;6.68;;;;;;;;;;5104343;28;20023;-79
2022/04/05 01:13:09;;;;;;;21.50;6.75;;;;;;;;;;5110833;27;20026;-79
2022/04/05 01:15:34;;;;;;;32.53;7.50;;;;;;;;;;5109358;27;20027;-78
2022/04/05 01:18:00;;;;;;;21.65;7.13;;;;;;;;;;5111022;27;20027;-79
2022/04/05 01:20:25;;;;;;;18.50;6.75;;;;;;;;;;5111136;27;20031;-79
2022/04/05 01:22:51;;;;;;;22.63;6.78;;;;;;;;;;5104124;28;20543;-80
2022/04/05 01:25:18;;;;;;;23.00;6.47;;;;;;;;;;5107994;28;20028;-78
2022/04/05 01:27:43;;;;;;;22.33;6.43;;;;;;;;;;5119388;27;20088;-79
2022/04/05 01:30:09;;;;;;;16.83;5.55;;;;;;;;;;5124996;27;21168;-80
2022/04/05 01:32:35;;;;;;;15.63;5.70;;;;;;;;;;5119352;27;20023;-79
2022/04/05 01:35:00;;;;;;;16.70;5.50;;;;;;;;;;5121516;27;20042;-79
2022/04/05 01:37:25;;;;;;;14.35;3.92;;;;;;;;;;5124615;27;20088;-81
2022/04/05 01:39:51;;;;;;;12.55;3.72;;;;;;;;;;5113035;27;20063;-78
2022/04/05 01:42:17;;;;;;;15.70;3.45;;;;;;;;;;5113972;27;20082;-80
2022/04/05 01:44:42;;;;;;;10.07;2.90;;;;;;;;;;5140102;27;20039;-80
2022/04/05 01:47:12;;;;;;;9.32;2.80;;;;;;;;;;5130261;27;20113;-78
2022/04/05 01:49:38;;;;;;;12.27;2.90;;;;;;;;;;5141965;27;20011;-79
2022/04/05 01:52:04;;;;;;;14.90;3.17;;;;;;;;;;5118994;27;20429;-78
2022/04/05 01:54:29;;;;;;;9.82;2.50;;;;;;;;;;5109083;27;20023;-79
2022/04/05 01:56:55;;;;;;;12.63;2.92;;;;;;;;;;5112720;27;20023;-79
2022/04/05 01:59:21;;;;;;;8.63;2.60;;;;;;;;;;5133155;27;20025;-79
2022/04/05 02:01:47;;;;;;;11.38;3.17;;;;;;;;;;5138733;27;20519;-79
2022/04/05 02:04:12;;;;;;;8.27;2.42;;;;;;;;;;5116773;27;20027;-79
2022/04/05 02:06:38;;;;;;;8.07;2.83;;;;;;;;;;5134552;27;20059;-78
2022/04/05 02:09:04;;;;;;;9.68;2.38;;;;;;;;;;5126563;27;20023;-80
2022/04/05 02:11:29;;;;;;;12.32;2.88;;;;;;;;;;5115839;27;20037;-79
2022/04/05 02:13:54;;;;;;;16.02;3.45;;;;;;;;;;5137793;27;20026;-80
2022/04/05 02:16:20;;;;;;;20.83;4.07;;;;;;;;;;5141506;27;20122;-80
2022/04/05 02:18:45;;;;;;;18.95;5.50;;;;;;;;;;5118982;27;20119;-79
2022/04/05 02:21:11;;;;;;;26.42;6.40;;;;;;;;;;5127662;27;20388;-80
2022/04/05 02:23:36;;;;;;;30.98;7.57;;;;;;;;;;5137122;27;20015;-78
2022/04/05 02:26:03;;;;;;;25.40;7.20;;;;;;;;;;5103692;27;20065;-80
2022/04/05 02:28:28;;;;;;;43.47;9.55;;;;;;;;;;5127787;27;20042;-79
2022/04/05 02:30:54;;;;;;;37.47;9.63;;;;;;;;;;5140316;27;20031;-79
2022/04/05 02:33:20;;;;;;;49.67;10.25;;;;;;;;;;5135835;27;20023;-79
2022/04/05 02:35:45;;;;;;;44.78;11.35;;;;;;;;;;5126485;27;20045;-79
2022/04/05 02:38:11;;;;;;;44.30;11.80;;;;;;;;;;5146617;27;20019;-78
2022/04/05 02:40:36;;;;;;;41.70;12.43;;;;;;;;;;5147924;27;20383;-78
2022/04/05 02:43:03;;;;;;;51.35;14.70;;;;;;;;;;5099425;27;20131;-80
2022/04/05 02:45:29;;;;;;;40.35;14.90;;;;;;;;;;5108465;27;20120;-81
2022/04/05 02:47:54;;;;;;;38.90;15.25;;;;;;;;;;5111006;27;20620;-80
2022/04/05 02:50:20;;;;;;;41.33;17.08;;;;;;;;;;5103552;27;20079;-80
2022/04/05 02:52:46;;;;;;;44.42;17.75;;;;;;;;;;5114544;27;20768;-79
2022/04/05 02:55:11;;;;;;;48.88;17.75;;;;;;;;;;5115498;27;20024;-79
2022/04/05 02:57:38;;;;;;;51.22;19.85;;;;;;;;;;5118571;27;20099;-79
2022/04/05 03:00:04;;;;;;;49.58;19.73;;;;;;;;;;5120302;27;20011;-79
2022/04/05 03:02:30;;;;;;;55.45;20.58;;;;;;;;;;5120376;27;20477;-79
2022/04/05 03:04:55;;;;;;;46.00;18.95;;;;;;;;;;5103070;28;20031;-78
2022/04/05 03:07:20;;;;;;;44.40;20.63;;;;;;;;;;5104246;28;20020;-78
2022/04/05 03:09:46;;;;;;;50.10;20.75;;;;;;;;;;5114002;27;20031;-77
2022/04/05 03:12:11;;;;;;;43.22;20.48;;;;;;;;;;5119270;27;20034;-78
2022/04/05 03:14:39;;;;;;;48.42;20.20;;;;;;;;;;5105469;28;20030;-78
2022/04/05 03:17:05;;;;;;;42.78;21.85;;;;;;;;;;5102086;28;20508;-76
2022/04/05 03:19:31;;;;;;;37.00;18.75;;;;;;;;;;5107121;27;20019;-79
2022/04/05 03:21:56;;;;;;;45.50;21.33;;;;;;;;;;5116882;27;20534;-78
2022/04/05 03:24:21;;;;;;;44.17;21.40;;;;;;;;;;5125417;27;20443;-79
2022/04/05 03:26:46;;;;;;;49.55;20.73;;;;;;;;;;5104139;27;20529;-78
2022/04/05 03:29:11;;;;;;;46.45;20.65;;;;;;;;;;5105021;28;20084;-78
2022/04/05 03:31:37;;;;;;;48.45;20.77;;;;;;;;;;5103510;27;20035;-78
2022/04/05 03:34:03;;;;;;;40.08;20.55;;;;;;;;;;5106868;27;20149;-75
2022/04/05 03:36:28;;;;;;;42.30;20.88;;;;;;;;;;5103218;27;20110;-77
2022/04/05 03:38:53;;;;;;;41.90;19.98;;;;;;;;;;5104567;28;20481;-77
2022/04/05 03:41:19;;;;;;;47.47;20.42;;;;;;;;;;5103659;28;20518;-78
2022/04/05 03:43:44;;;;;;;55.15;22.02;;;;;;;;;;5117668;27;20058;-77
2022/04/05 03:46:09;;;;;;;55.03;21.73;;;;;;;;;;5124550;27;20058;-77
2022/04/05 03:48:34;;;;;;;57.20;21.23;;;;;;;;;;5136228;27;20018;-78
2022/04/05 03:51:00;;;;;;;66.45;22.45;;;;;;;;;;5142595;27;20087;-77
2022/04/05 03:53:25;;;;;;;53.50;19.90;;;;;;;;;;5143464;27;20029;-76
2022/04/05 03:55:50;;;;;;;58.17;20.42;;;;;;;;;;5142854;27;20027;-78
2022/04/05 03:58:16;;;;;;;58.22;19.98;;;;;;;;;;5112382;27;20243;-78
2022/04/05 04:00:42;;;;;;;56.45;19.42;;;;;;;;;;5128650;27;20027;-80
2022/04/05 04:03:07;;;;;;;53.10;18.90;;;;;;;;;;5105874;27;20015;-77
2022/04/05 04:05:32;;;;;;;45.20;17.15;;;;;;;;;;5123638;27;20027;-80
2022/04/05 04:07:58;;;;;;;52.22;17.77;;;;;;;;;;5131598;27;20076;-78
2022/04/05 04:10:23;;;;;;;44.35;14.95;;;;;;;;;;5126690;27;20023;-78
2022/04/05 04:12:48;;;;;;;40.50;13.95;;;;;;;;;;5143876;27;20046;-78
2022/04/05 04:15:13;;;;;;;33.47;13.85;;;;;;;;;;5129656;27;20058;-79
2022/04/05 04:17:39;;;;;;;38.78;13.27;;;;;;;;;;5122683;27;20015;-76
2022/04/05 04:20:05;;;;;;;39.63;13.82;;;;;;;;;;5121602;27;20489;-77
2022/04/05 04:22:30;;;;;;;41.67;13.35;;;;;;;;;;5136770;27;20064;-77
2022/04/05 04:24:57;;;;;;;47.60;13.43;;;;;;;;;;5133633;27;20015;-78
2022/04/05 04:27:23;;;;;;;41.88;12.85;;;;;;;;;;5137052;27;20102;-79
2022/04/05 04:29:48;;;;;;;36.40;13.23;;;;;;;;;;5134648;27;20015;-76
2022/04/05 04:32:13;;;;;;;37.15;13.00;;;;;;;;;;5138881;27;20477;-78
2022/04/05 04:34:39;;;;;;;35.53;13.05;;;;;;;;;;5142138;27;20019;-78
2022/04/05 04:37:04;;;;;;;36.20;14.00;;;;;;;;;;5110814;27;20035;-77
2022/04/05 04:39:29;;;;;;;35.20;14.23;;;;;;;;;;5137473;27;20079;-78
2022/04/05 04:41:58;;;;;;;34.95;14.50;;;;;;;;;;5121667;27;20022;-79
2022/04/05 04:44:24;;;;;;;32.80;13.32;;;;;;;;;;5132482;27;20078;-79
2022/04/05 04:46:50;;;;;;;36.30;14.27;;;;;;;;;;5130496;27;20028;-77
2022/04/05 04:49:15;;;;;;;30.48;13.68;;;;;;;;;;5114917;27;20026;-78
2022/04/05 04:51:40;;;;;;;32.90;13.55;;;;;;;;;;5128918;27;20035;-79
2022/04/05 04:54:05;;;;;;;30.88;13.13;;;;;;;;;;5115752;27;20018;-79
2022/04/05 04:56:31;;;;;;;28.80;12.70;;;;;;;;;;5133118;27;20089;-78
2022/04/05 04:58:56;;;;;;;33.28;12.90;;;;;;;;;;5137877;27;20019;-80
2022/04/05 05:01:21;;;;;;;38.33;13.85;;;;;;;;;;5137925;27;20022;-78
2022/04/05 05:03:53;;;;;;;31.85;12.65;;;;;;;;;;5129886;27;20483;-77
2022/04/05 05:06:18;;;;;;;31.65;12.40;;;;;;;;;;5116378;27;20035;-79
2022/04/05 05:08:43;;;;;;;34.28;12.15;;;;;;;;;;5141375;27;20097;-78
2022/04/05 05:11:12;;;;;;;33.83;12.68;;;;;;;;;;5147186;27;20027;-81
2022/04/05 05:13:37;;;;;;;30.70;11.57;;;;;;;;;;5144584;27;20023;-77
2022/04/05 05:16:03;;;;;;;33.50;12.10;;;;;;;;;;5144129;27;20023;-77
2022/04/05 05:18:29;;;;;;;33.78;11.90;;;;;;;;;;5100241;27;20018;-79
2022/04/05 05:20:54;;;;;;;35.92;12.32;;;;;;;;;;5129522;27;20430;-78
2022/04/05 05:23:19;;;;;;;38.35;12.60;;;;;;;;;;5131096;27;20027;-78
2022/04/05 05:25:46;;;;;;;33.67;12.43;;;;;;;;;;5126510;27;20105;-80
2022/04/05 05:28:11;;;;;;;33.15;13.15;;;;;;;;;;5126588;27;20056;-77
2022/04/05 05:30:37;;;;;;;29.90;13.10;;;;;;;;;;5134729;27;20045;-82
2022/04/05 05:33:02;;;;;;;38.17;13.25;;;;;;;;;;5140579;27;20506;-79
2022/04/05 05:35:27;;;;;;;34.63;12.77;;;;;;;;;;5126778;27;20027;-79
2022/04/05 05:37:53;;;;;;;38.42;13.27;;;;;;;;;;5138746;27;20540;-79
2022/04/05 05:40:18;;;;;;;33.45;11.48;;;;;;;;;;5131294;27;20065;-81
2022/04/05 05:42:47;;;;;;;33.17;11.43;;;;;;;;;;5136565;27;20496;-81
2022/04/05 05:45:12;;;;;;;25.80;11.13;;;;;;;;;;5129069;27;20073;-82
2022/04/05 05:47:38;;;;;;;33.35;11.50;;;;;;;;;;5116582;27;20495;-80
2022/04/05 05:50:03;;;;;;;29.42;11.02;;;;;;;;;;5133380;27;20548;-78
2022/04/05 05:52:29;;;;;;;28.27;11.65;;;;;;;;;;5118426;27;20018;-79
2022/04/05 05:54:54;;;;;;;32.55;11.32;;;;;;;;;;5126295;27;20030;-79
2022/04/05 05:57:20;;;;;;;30.83;12.23;;;;;;;;;;5131876;27;20133;-81
2022/04/05 05:59:45;;;;;;;29.58;11.80;;;;;;;;;;5109166;27;20019;-81
2022/04/05 06:02:10;;;;;;;29.65;11.80;;;;;;;;;;5105018;27;20106;-80
2022/04/05 06:04:45;;;;;;;29.50;11.10;;;;;;;;;;5114250;27;20602;-79
2022/04/05 06:07:10;;;;;;;29.77;11.30;;;;;;;;;;5133444;27;20031;-81
2022/04/05 06:09:35;;;;;;;29.77;11.52;;;;;;;;;;5127667;27;20034;-80
2022/04/05 06:12:01;;;;;;;29.17;11.63;;;;;;;;;;5135132;27;20019;-80
2022/04/05 06:14:26;;;;;;;25.73;9.88;;;;;;;;;;5090496;27;20145;-80
2022/04/05 06:16:51;;;;;;;27.48;11.15;;;;;;;;;;5126993;27;20019;-80
2022/04/05 06:19:17;;;;;;;29.25;9.98;;;;;;;;;;5100367;27;20126;-80
2022/04/05 06:21:42;;;;;;;28.35;10.18;;;;;;;;;;5138640;27;20133;-83
2022/04/05 06:24:07;;;;;;;28.20;10.50;;;;;;;;;;5135189;27;20022;-80
2022/04/05 06:26:32;;;;;;;25.30;9.93;;;;;;;;;;5142628;27;20103;-77
2022/04/05 06:28:58;;;;;;;30.60;10.10;;;;;;;;;;5128809;27;20426;-78
2022/04/05 06:31:24;;;;;;;23.30;8.93;;;;;;;;;;5090405;27;20028;-79
2022/04/05 06:33:49;;;;;;;25.73;9.13;;;;;;;;;;5090470;27;20440;-83
2022/04/05 06:36:14;;;;;;;24.55;9.85;;;;;;;;;;5124025;27;20034;-79
2022/04/05 06:38:39;;;;;;;21.90;8.77;;;;;;;;;;5127061;27;20217;-77
2022/04/05 06:41:05;;;;;;;25.60;8.63;;;;;;;;;;5116842;27;20018;-80
2022/04/05 06:43:30;;;;;;;22.17;8.45;;;;;;;;;;5107689;27;20135;-82
2022/04/05 06:45:56;;;;;;;19.60;7.68;;;;;;;;;;5116754;27;20481;-80
2022/04/05 06:48:21;;;;;;;18.48;7.63;;;;;;;;;;5089484;28;20080;-79
2022/04/05 06:50:47;;;;;;;17.52;7.38;;;;;;;;;;5116881;27;20027;-78
2022/04/05 06:53:12;;;;;;;21.95;8.07;;;;;;;;;;5125355;27;20044;-80
2022/04/05 06:55:38;;;;;;;20.58;7.63;;;;;;;;;;5125066;27;20363;-79
2022/04/05 06:58:03;;;;;;;21.10;7.78;;;;;;;;;;5123914;27;20488;-78
2022/04/05 07:00:29;;;;;;;19.38;7.43;;;;;;;;;;5109701;27;20550;-79
2022/04/05 07:02:56;;;;;;;19.40;7.45;;;;;;;;;;5102633;28;20028;-80
2022/04/05 07:05:22;;;;;;;22.13;7.70;;;;;;;;;;5106437;27;20103;-78
2022/04/05 07:07:47;;;;;;;21.48;7.57;;;;;;;;;;5114921;27;20055;-82
2022/04/05 07:10:14;;;;;;;24.55;8.82;;;;;;;;;;5120844;27;20496;-80
2022/04/05 07:12:40;;;;;;;23.02;8.00;;;;;;;;;;5124636;27;20401;-82
2022/04/05 07:15:05;;;;;;;24.33;8.23;;;;;;;;;;5120875;27;20099;-80
2022/04/05 07:17:31;;;;;;;24.17;8.55;;;;;;;;;;5123158;27;20060;-79
2022/04/05 07:19:56;;;;;;;19.77;7.22;;;;;;;;;;5122405;27;20034;-81
2022/04/05 07:22:24;;;;;;;21.88;8.73;;;;;;;;;;5085244;28;20023;-80
2022/04/05 07:24:49;;;;;;;22.73;8.50;;;;;;;;;;5122669;27;20453;-82
2022/04/05 07:27:14;;;;;;;20.17;7.65;;;;;;;;;;5124660;27;20031;-80
2022/04/05 07:29:40;;;;;;;20.70;7.22;;;;;;;;;;5117777;27;20216;-80
2022/04/05 07:32:06;;;;;;;21.25;7.47;;;;;;;;;;5124672;27;20023;-80
2022/04/05 07:34:32;;;;;;;23.08;7.57;;;;;;;;;;5112405;27;20019;-79
2022/04/05 07:36:57;;;;;;;18.13;7.80;;;;;;;;;;5110490;27;20034;-73
2022/04/05 07:39:23;;;;;;;25.80;7.15;;;;;;;;;;5110450;27;20055;-72
2022/04/05 07:41:48;;;;;;;19.90;7.40;;;;;;;;;;5107200;27;20060;-73
2022/04/05 07:44:14;;;;;;;22.63;7.85;;;;;;;;;;5125069;27;20402;-74
2022/04/05 07:46:39;;;;;;;18.13;7.05;;;;;;;;;;5136419;27;20401;-73
2022/04/05 07:49:05;;;;;;;17.90;7.50;;;;;;;;;;5134653;27;20474;-72
2022/04/05 07:51:30;;;;;;;21.30;7.40;;;;;;;;;;5121941;27;20080;-73
2022/04/05 07:53:55;;;;;;;15.80;7.30;;;;;;;;;;5137422;27;20059;-74
2022/04/05 07:56:21;;;;;;;21.08;7.57;;;;;;;;;;5128824;27;20080;-74
2022/04/05 07:58:47;;;;;;;19.20;7.35;;;;;;;;;;5144354;27;20478;-73
2022/04/05 08:01:13;;;;;;;21.83;6.80;;;;;;;;;;5120928;27;20496;-73
2022/04/05 08:03:38;;;;;;;21.15;6.68;;;;;;;;;;5135668;27;20182;-75
2022/04/05 08:06:05;;;;;;;21.70;6.43;;;;;;;;;;5139384;27;20554;-72
2022/04/05 08:08:30;;;;;;;15.80;7.03;;;;;;;;;;5095368;27;20019;-74
2022/04/05 08:10:57;;;;;;;18.38;6.80;;;;;;;;;;5120219;27;20034;-73
2022/04/05 08:13:22;;;;;;;21.73;7.00;;;;;;;;;;5117435;27;20031;-74
2022/04/05 08:15:47;;;;;;;19.02;6.97;;;;;;;;;;5131356;27;20023;-75
2022/04/05 08:18:13;;;;;;;21.38;6.88;;;;;;;;;;5140144;27;20532;-75
2022/04/05 08:20:41;;;;;;;19.42;6.65;;;;;;;;;;5142845;27;20414;-74
2022/04/05 08:23:10;;;;;;;22.65;7.07;;;;;;;;;;5122893;27;20019;-74
2022/04/05 08:25:36;;;;;;;21.27;6.70;;;;;;;;;;5143320;27;20071;-75
2022/04/05 08:28:01;;;;;;;25.02;6.80;;;;;;;;;;5123714;27;20027;-75
2022/04/05 08:30:27;;;;;;;20.30;6.75;;;;;;;;;;5117561;27;20318;-74
2022/04/05 08:32:52;;;;;;;15.85;6.15;;;;;;;;;;5135603;27;20023;-74
2022/04/05 08:35:18;;;;;;;21.60;6.10;;;;;;;;;;5120663;27;20024;-73
2022/04/05 08:37:44;;;;;;;17.00;6.40;;;;;;;;;;5124140;27;20099;-74
2022/04/05 08:40:10;;;;;;;23.88;6.57;;;;;;;;;;5123929;27;20011;-75
2022/04/05 08:42:37;;;;;;;21.65;6.40;;;;;;;;;;5138933;27;20110;-73
2022/04/05 08:45:04;;;;;;;17.10;6.28;;;;;;;;;;5146614;27;20058;-73
2022/04/05 08:47:30;;;;;;;21.75;5.90;;;;;;;;;;5119463;27;20055;-75
2022/04/05 08:49:55;;;;;;;20.83;6.43;;;;;;;;;;5125475;27;20065;-74
2022/04/05 08:52:21;;;;;;;17.38;5.85;;;;;;;;;;5126071;27;20446;-75
2022/04/05 08:54:46;;;;;;;21.58;5.90;;;;;;;;;;5127739;27;20050;-73
2022/04/05 08:57:11;;;;;;;17.95;6.53;;;;;;;;;;5126155;27;20019;-73
2022/04/05 08:59:36;;;;;;;19.48;5.85;;;;;;;;;;5126242;27;20110;-73
2022/04/05 09:02:02;;;;;;;18.38;5.75;;;;;;;;;;5144486;27;20041;-74
2022/04/05 09:04:31;;;;;;;12.55;5.03;;;;;;;;;;5111237;27;20057;-73
2022/04/05 09:06:57;;;;;;;20.92;6.03;;;;;;;;;;5127064;27;20030;-73
2022/04/05 09:09:28;;;;;;;17.90;6.22;;;;;;;;;;5146883;27;20022;-73
2022/04/05 09:11:53;;;;;;;17.65;6.05;;;;;;;;;;5125936;27;20030;-75
2022/04/05 09:14:26;;;;;;;20.85;6.13;;;;;;;;;;5122478;27;20019;-74
2022/04/05 09:17:06;;;;;;;19.02;5.93;;;;;;;;;;5140990;27;20030;-74
2022/04/05 09:19:38;;;;;;;14.77;5.40;;;;;;;;;;5109287;27;20201;-74
2022/04/05 09:22:04;;;;;;;;;;;;;;;;;;5127907;27;20079;-74
2022/04/05 09:24:35;;;;;;;22.02;5.60;;;;;;;;;;5125917;27;19910;-73
2022/04/05 09:27:01;;;;;;;18.00;5.90;;;;;;;;;;5127708;27;20023;-75
2022/04/05 09:29:43;;;;;;;17.42;5.70;;;;;;;;;;5103585;27;20030;-74
2022/04/05 09:32:09;;;;;;;17.83;6.22;;;;;;;;;;5106336;27;20027;-74
2022/04/05 09:34:48;;;;;;;19.38;5.30;;;;;;;;;;5103532;27;20068;-73
2022/04/05 09:37:14;;;;;;;19.77;5.97;;;;;;;;;;5122743;27;20387;-71
2022/04/05 09:39:41;;;;;;;17.85;6.07;;;;;;;;;;5107820;27;20496;-74
2022/04/05 09:42:10;;;;;;;17.13;5.88;;;;;;;;;;5125876;27;20027;-74
2022/04/05 09:44:43;;;;;;;21.10;5.75;;;;;;;;;;5105642;27;20039;-74
2022/04/05 09:47:10;;;;;;;18.65;5.88;;;;;;;;;;5145018;27;20054;-73
2022/04/05 09:49:40;;;;;;;16.25;5.60;;;;;;;;;;5107065;27;20027;-73
2022/04/05 09:52:25;;;;;;;21.25;5.75;;;;;;;;;;5116790;27;20034;-74
2022/04/05 09:54:50;;;;;;;14.45;4.95;;;;;;;;;;5126688;27;20500;-73
2022/04/05 09:57:26;;;;;;;17.45;5.22;;;;;;;;;;5105779;27;20019;-73
2022/04/05 09:59:51;;;;;;;16.88;5.47;;;;;;;;;;5124451;27;20088;-74
2022/04/05 10:02:17;;;;;;;21.30;5.03;;;;;;;;;;5103621;27;20020;-74
2022/04/05 10:05:01;;;;;;;19.92;5.45;;;;;;;;;;5124198;27;20019;-73
2022/04/05 10:07:30;;;;;;;21.27;5.72;;;;;;;;;;5122829;27;20026;-73
2022/04/05 10:09:57;;;;;;;17.30;5.10;;;;;;;;;;5125590;27;20019;-74
2022/04/05 10:12:23;;;;;;;15.90;5.10;;;;;;;;;;5126610;27;20019;-74
2022/04/05 10:14:48;;;;;;;16.08;5.63;;;;;;;;;;5108789;27;20101;-75
2022/04/05 10:17:17;;;;;;;16.00;5.60;;;;;;;;;;5128665;27;20029;-74
2022/04/05 10:19:48;;;;;;;20.02;5.60;;;;;;;;;;5124816;27;20019;-74
2022/04/05 10:22:17;;;;;;;19.15;5.97;;;;;;;;;;5147666;27;20717;-74
2022/04/05 10:24:44;;;;;;;23.17;5.97;;;;;;;;;;5121876;27;20022;-74
2022/04/05 10:27:10;;;;;;;23.63;5.85;;;;;;;;;;5127650;27;20155;-75
2022/04/05 10:29:35;;;;;;;21.50;5.68;;;;;;;;;;5144096;27;20532;-75
2022/04/05 10:32:08;;;;;;;14.32;4.97;;;;;;;;;;5132022;27;20024;-75
2022/04/05 10:34:42;;;;;;;19.52;5.72;;;;;;;;;;5106531;27;20023;-73
2022/04/05 10:37:08;;;;;;;13.75;5.43;;;;;;;;;;5122867;27;20030;-75
2022/04/05 10:39:34;;;;;;;15.85;5.68;;;;;;;;;;5110642;27;20460;-73
2022/04/05 10:42:08;;;;;;;17.00;5.65;;;;;;;;;;5108501;27;20054;-74
2022/04/05 10:44:34;;;;;;;18.23;5.97;;;;;;;;;;5121220;27;20039;-73
2022/04/05 10:47:06;;;;;;;21.98;6.22;;;;;;;;;;5126127;27;20034;-74
2022/04/05 10:49:36;;;;;;;15.82;5.15;;;;;;;;;;5115442;27;20812;-74
2022/04/05 10:52:11;;;;;;;16.30;5.80;;;;;;;;;;5126230;27;20099;-73
2022/04/05 10:54:44;;;;;;;15.55;6.10;;;;;;;;;;5133191;27;20477;-74
2022/04/05 10:57:09;;;;;;;;;;;;;;;;;;5106089;27;21183;-73
2022/04/05 10:59:47;;;;;;;18.85;7.05;;;;;;;;;;5122230;27;19940;-75
2022/04/05 11:02:33;;;;;;;16.25;5.80;;;;;;;;;;5141930;27;20079;-72
2022/04/05 11:04:59;;;;;;;15.32;5.47;;;;;;;;;;5122127;27;20534;-75
2022/04/05 11:07:25;;;;;;;17.30;5.75;;;;;;;;;;5124515;27;20500;-73
2022/04/05 11:09:54;;;;;;;17.85;6.10;;;;;;;;;;5106785;27;20050;-73
2022/04/05 11:12:21;;;;;;;19.27;6.18;;;;;;;;;;5129579;27;20324;-73
2022/04/05 11:14:50;;;;;;;14.88;6.07;;;;;;;;;;5124700;27;20380;-73
2022/04/05 11:17:17;;;;;;;14.93;5.95;;;;;;;;;;5121653;27;20022;-73
2022/04/05 11:19:44;;;;;;;17.75;6.38;;;;;;;;;;5128266;27;20089;-73
2022/04/05 11:22:23;;;;;;;17.05;5.82;;;;;;;;;;5141136;27;20021;-72
2022/04/05 11:24:52;;;;;;;23.48;6.20;;;;;;;;;;5106475;27;20064;-74
2022/04/05 11:27:25;;;;;;;20.08;6.47;;;;;;;;;;5124891;27;20020;-73
2022/04/05 11:30:10;;;;;;;21.77;5.88;;;;;;;;;;5123986;27;20533;-73
2022/04/05 11:32:35;;;;;;;20.98;6.07;;;;;;;;;;5122165;27;20031;-74
2022/04/05 11:35:00;;;;;;;22.25;7.43;;;;;;;;;;5103750;27;20056;-73
2022/04/05 11:37:32;;;;;;;17.48;6.50;;;;;;;;;;5109405;27;20068;-73
2022/04/05 11:40:00;;;;;;;18.77;6.45;;;;;;;;;;5138892;27;20021;-73
2022/04/05 11:42:25;;;;;;;17.17;6.68;;;;;;;;;;5122800;27;20520;-72
2022/04/05 11:44:52;;;;;;;23.98;7.50;;;;;;;;;;5103001;27;20046;-74
2022/04/05 11:47:18;;;;;;;19.38;6.85;;;;;;;;;;5104092;27;20014;-73
2022/04/05 11:49:44;;;;;;;14.23;6.35;;;;;;;;;;5122070;27;20045;-74
2022/04/05 11:52:10;;;;;;;19.85;6.82;;;;;;;;;;5141962;27;20023;-74
2022/04/05 11:56:00;;;;;;;17.92;6.50;;;;;;;;;;5123172;27;20011;-73
2022/04/05 11:57:21;;;;;;;18.35;6.05;;;;;;;;;;5144046;27;20238;-72
2022/04/05 11:59:46;;;;;;;19.88;6.57;;;;;;;;;;5142530;27;20049;-73
2022/04/05 12:02:11;;;;;;;18.65;6.63;;;;;;;;;;5143339;27;20497;-72
2022/04/05 12:04:37;;;;;;;17.92;6.63;;;;;;;;;;5107394;27;20027;-72
2022/04/05 12:07:03;;;;;;;18.60;6.50;;;;;;;;;;5108602;27;20022;-74
2022/04/05 12:09:30;;;;;;;17.27;7.22;;;;;;;;;;5112229;27;20019;-73
2022/04/05 12:11:55;;;;;;;20.50;7.28;;;;;;;;;;5125041;27;20097;-75
2022/04/05 12:14:22;;;;;;;21.83;7.18;;;;;;;;;;5123967;27;20157;-73
2022/04/05 12:16:52;;;;;;;18.25;7.30;;;;;;;;;;5111697;27;20054;-73
2022/04/05 12:19:19;;;;;;;14.48;6.18;;;;;;;;;;5112266;27;20038;-74
2022/04/05 12:21:44;;;;;;;17.33;6.57;;;;;;;;;;5128346;27;20477;-73
2022/04/05 12:24:09;;;;;;;16.33;5.95;;;;;;;;;;5130144;27;20244;-74
2022/04/05 12:26:34;;;;;;;18.17;6.55;;;;;;;;;;5126574;27;20027;-74
2022/04/05 12:28:59;;;;;;;21.73;6.05;;;;;;;;;;5130924;27;20528;-75
2022/04/05 12:31:29;;;;;;;20.08;7.10;;;;;;;;;;5127257;27;20029;-73
2022/04/05 12:33:54;;;;;;;21.88;6.88;;;;;;;;;;5090831;27;20027;-73
2022/04/05 12:36:21;;;;;;;20.73;6.90;;;;;;;;;;5126689;27;20023;-72
2022/04/05 12:38:46;;;;;;;15.18;6.75;;;;;;;;;;5109877;27;20108;-73
2022/04/05 12:41:15;;;;;;;17.67;6.63;;;;;;;;;;5129331;27;20048;-73
2022/04/05 12:43:43;;;;;;;17.23;6.13;;;;;;;;;;5140889;27;20043;-73
2022/04/05 12:46:12;;;;;;;16.58;6.60;;;;;;;;;;5132727;27;20019;-72
2022/04/05 12:48:38;;;;;;;15.73;5.82;;;;;;;;;;5151298;27;20068;-73
2022/04/05 12:51:03;;;;;;;17.23;6.38;;;;;;;;;;5147949;27;20042;-71
2022/04/05 12:53:35;;;;;;;17.23;5.93;;;;;;;;;;5133917;27;20381;-74
2022/04/05 12:56:02;;;;;;;16.92;6.38;;;;;;;;;;5151339;27;20030;-73
2022/04/05 12:58:35;;;;;;;16.75;6.90;;;;;;;;;;5151402;27;20067;-72
2022/04/05 13:01:00;;;;;;;20.52;6.03;;;;;;;;;;5128021;27;20035;-73
2022/04/05 13:03:30;;;;;;;13.32;6.00;;;;;;;;;;5131602;27;20007;-72
2022/04/05 13:08:40;;;;;;;19.20;6.78;;;;;;;;;;5129804;27;20078;-73
2022/04/05 13:11:22;;;;;;;19.10;6.47;;;;;;;;;;5111343;27;20073;-73
2022/04/05 13:13:48;;;;;;;18.67;5.82;;;;;;;;;;5128784;27;20424;-74
2022/04/05 13:16:15;;;;;;;19.58;6.38;;;;;;;;;;5097003;27;20019;-74
2022/04/05 13:18:40;;;;;;;17.42;6.40;;;;;;;;;;5106502;27;20524;-72
2022/04/05 13:21:07;;;;;;;17.17;5.93;;;;;;;;;;5106860;27;20122;-73
2022/04/05 13:23:34;;;;;;;13.18;6.03;;;;;;;;;;5108468;27;20015;-72
2022/04/05 13:25:59;;;;;;;16.40;6.30;;;;;;;;;;5108924;27;20026;-73
2022/04/05 13:28:32;;;;;;;16.35;5.72;;;;;;;;;;5127406;27;20024;-73
2022/04/05 13:31:05;;;;;;;15.82;6.45;;;;;;;;;;5106270;27;20031;-73
2022/04/05 13:33:31;;;;;;;15.65;6.00;;;;;;;;;;5133263;27;20031;-72
2022/04/05 13:35:56;;;;;;;16.70;6.82;;;;;;;;;;5127454;27;20087;-73
2022/04/05 13:38:22;;;;;;;18.95;7.13;;;;;;;;;;5147501;27;20061;-74
2022/04/05 13:40:47;;;;;;;16.52;6.47;;;;;;;;;;5147136;27;20242;-73
2022/04/05 13:43:12;;;;;;;19.45;6.57;;;;;;;;;;5147475;27;20392;-74
2022/04/05 13:45:40;;;;;;;20.77;6.53;;;;;;;;;;5145473;27;20061;-73
2022/04/05 13:48:07;;;;;;;19.20;7.20;;;;;;;;;;5145176;27;20015;-74
2022/04/05 13:50:33;;;;;;;15.77;7.10;;;;;;;;;;5145619;27;20022;-73
2022/04/05 13:52:58;;;;;;;22.58;7.40;;;;;;;;;;5111516;27;20068;-72
2022/04/05 13:55:24;;;;;;;21.27;7.40;;;;;;;;;;5147564;27;20410;-74
2022/04/05 13:57:49;;;;;;;17.55;8.40;;;;;;;;;;5146206;27;20019;-72
2022/04/05 14:00:14;;;;;;;24.60;8.18;;;;;;;;;;5138426;27;20338;-72
2022/04/05 14:02:40;;;;;;;23.13;7.30;;;;;;;;;;5140493;27;20099;-75
2022/04/05 14:05:05;;;;;;;19.95;7.65;;;;;;;;;;5126179;27;20027;-73
2022/04/05 14:07:32;;;;;;;23.35;8.48;;;;;;;;;;5127401;27;20509;-73
2022/04/05 14:09:57;;;;;;;19.38;7.97;;;;;;;;;;5108563;27;20045;-73
2022/04/05 14:12:22;;;;;;;24.08;7.70;;;;;;;;;;5128788;27;20471;-73
2022/04/05 14:14:47;;;;;;;19.30;8.07;;;;;;;;;;5141090;27;20031;-73
2022/04/05 14:17:13;;;;;;;19.00;8.00;;;;;;;;;;5142396;27;20020;-72
2022/04/05 14:19:39;;;;;;;21.48;8.52;;;;;;;;;;5126652;27;20034;-72
2022/04/05 14:22:04;;;;;;;18.10;8.45;;;;;;;;;;5111404;27;20015;-73
2022/04/05 14:24:29;;;;;;;21.55;7.72;;;;;;;;;;5112977;27;20076;-73